Tiempo atmosférico en la estación meteorológica de Yecla, Murcia (640 m.)



Fecha
DESCASC
Temp. máxima en grados centígrados (hora)
DESCASC
Temp. mínima en grados centígrados (hora)
DESCASC
Temp. media en grados centígrados
DESCASC
Racha de viento máxima en m/sg (hora)
DESCASC
Velocidad máxima media en intervalos de 10 minutos(hora)
DESCASC
Precipitaciones diarias en mm
DESCASC
Precipitaciones de 00:00 a 06:00 en mm
DESCASC
Precipitaciones de 06:00 a 12:00 en mm
DESCASC
Precipitaciones de 12:00 a 18:00 en mm
DESCASC
Precipitaciones de 18:00 a 24:00 en mm
DESCASC
17-09-2020 29.6 (16:00) 18.6 (07:10) 24.1 7.78 (16:50) 4.44 (17:10) 0 0 0 0 0
16-09-2020 31.6 (15:50) 13.3 (07:50) 22.5 -- (--) -- (--) 0 0 0 0 0
15-09-2020 31.6 (16:00) 14.9 (08:10) 23.3 7.5 (18:20) 4.17 (17:20) 0 0 0 0 0
14-09-2020 30.2 (16:00) 12.5 (00:00) 21.4 8.06 (16:00) 4.17 (18:50) 0 0 0 0 0
13-09-2020 30.5 (15:50) 11.9 (00:00) 21.2 7.78 (13:10) 4.17 (14:40) 0 0 0 0 0
12-09-2020 31.7 (16:20) 14.1 (00:00) 22.9 7.5 (18:20) 4.17 (17:20) 0 0 0 0 0
11-09-2020 31.9 (15:50) 12.8 (00:00) 22.3 9.17 (19:00) 5.28 (18:10) 0.2 0 0 0.2 0
10-09-2020 28.8 (16:40) 12.4 (00:00) 20.6 7.5 (18:30) 4.44 (18:30) 0 0 0 0 0
09-09-2020 28.4 (17:40) 11.2 (00:00) 19.8 6.94 (18:40) 4.17 (10:10) 0 0 0 0 0
08-09-2020 24.2 (15:40) 13.1 (00:00) 18.7 8.33 (09:40) 5.28 (19:10) 0 0 0 0 0
07-09-2020 25.2 (16:40) 15.1 (06:20) 20.2 12.5 (17:00) 8.61 (17:00) 0 0 0 0 0
06-09-2020 30.4 (17:10) 14.1 (00:00) 22.3 6.39 (13:20) 3.61 (19:50) 0 0 0 0 0
05-09-2020 31 (16:40) 14.6 (00:00) 22.8 7.5 (18:30) 4.17 (18:30) 0 0 0 0 0
04-09-2020 28.5 (17:20) 11.7 (00:00) 20.1 7.22 (14:50) 3.89 (18:30) 0 0 0 0 0
03-09-2020 29.2 (16:20) 13.6 (00:00) 21.4 6.94 (16:20) 3.61 (16:40) 0 0 0 0 0
02-09-2020 28.6 (15:00) 15 (00:00) 21.8 13.89 (17:10) 8.61 (17:10) 11.8 0 0 11.8 0
01-09-2020 27.2 (17:20) 11 (00:00) 19.1 7.22 (18:40) 4.17 (18:40) 0 0 0 0 0
31-08-2020 28 (18:00) 10.7 (00:00) 19.3 8.89 (16:40) 5.28 (19:10) 0 0 0 0 0
30-08-2020 26.7 (17:10) 13.9 (00:00) 20.3 10.83 (09:50) 6.94 (09:30) 0 0 0 0 0
29-08-2020 29.9 (15:00) 18.1 (00:00) 24 15.56 (16:50) 7.78 (17:00) 0 0 0 0 0
28-08-2020 35.7 (15:20) 16.7 (00:00) 26.2 9.17 (16:50) 5.83 (23:59) 0 0 0 0 0
27-08-2020 38.2 (15:50) 17 (00:00) 27.6 9.44 (18:10) 5.28 (18:10) 0 0 0 0 0
26-08-2020 36.7 (16:00) 15.8 (00:00) 26.3 8.61 (15:30) 4.44 (15:30) 0 0 0 0 0
25-08-2020 36.1 (16:30) 16.3 (00:00) 26.2 8.33 (16:50) 4.72 (18:30) 0 0 0 0 0
24-08-2020 31.6 (16:40) 20 (00:00) 25.8 8.33 (18:20) 3.89 (17:50) 0 0 0 0 0
23-08-2020 32 (15:10) 18.5 (00:00) 25.3 8.61 (16:10) 4.17 (18:50) 0 0 0 0 0
22-08-2020 37.3 (17:00) 18.3 (00:00) 27.8 9.72 (13:00) 5.28 (18:00) 0 0 0 0 0
21-08-2020 38.4 (17:40) 17.1 (00:00) 27.8 9.72 (16:00) 4.72 (19:50) 0 0 0 0 0

Gráficas

Temp. máximas Temp. mínimas Temp. medias Precipitaciones Rachas de viento máximas Velocidades máximas media en intervalos de 10 minutos

Datos horarios

Fecha y hora oficial Temperatura (ºC) Velocidad del viento (km/h) Dirección del viento Racha (km/h) Dirección de racha Precipitación (mm) Presión (hPa) Tendencia (hPa) Humedad (%)
2020-09-19 23:00:00 20.2 17 Noroeste 33 Noroeste 0 945.1 1.8 57
2020-09-19 22:00:00 20.7 16 Noroeste 30 Oeste 0 944.5 1.6 54
2020-09-19 21:00:00 21.5 17 Oeste 34 Oeste 0 943.7 1 50
2020-09-19 20:00:00 22.7 14 Oeste 27 Oeste 0 943.3 0.3 45
2020-09-19 19:00:00 25.5 12 Oeste 33 Oeste 0 942.9 -0.4 35
2020-09-19 18:00:00 26.3 19 Oeste 36 Oeste 0 942.7 -1.1 32
2020-09-19 17:00:00 26.6 17 Oeste 40 Oeste 0 943 -1.3 31
2020-09-19 16:00:00 26.1 25 Oeste 39 Oeste 0 943.3 -1.4 30
2020-09-19 15:00:00 25.6 23 Oeste 37 Oeste 0 943.8 -0.9 32
2020-09-19 14:00:00 24 21 Oeste 37 Oeste 0 944.3 -0.6 40
2020-09-19 13:00:00 23.6 17 Oeste 36 Oeste 0 944.7 0.3 45
2020-09-19 12:00:00 22.3 23 Oeste 34 Oeste 0 944.7 0.5 47
2020-09-19 11:00:00 21.3 16 Oeste 24 Oeste 0 944.9 -- 51
2020-09-19 10:00:00 17.7 3 Este 9 Este 0 944.4 -- 89
2020-09-19 09:00:00 14.3 2 Noroeste 6 Nordeste 0 944.2 -- 92
2020-09-19 08:00:00 12.5 3 Oeste 8 Nordeste 0 943.8 -- 92
2020-09-19 07:00:00 13.8 5 Oeste 6 Oeste 0 943.4 -- 92
2020-09-19 06:00:00 14.3 6 Oeste 10 Oeste 0 943.2 -- 92
2020-09-19 05:00:00 14 0 Calma 6 Sudoeste 0 943 -- 90
2020-09-19 04:00:00 15.2 0 Calma 13 Oeste 0 943.2 -- 89
2020-09-19 03:00:00 15.8 6 Sudoeste 12 Oeste 0 943 -- 90
2020-09-19 02:00:00 16.3 10 Oeste 14 Oeste 0 943.6 -- 89
2020-09-19 01:00:00 16.6 3 Sudoeste 9 Sur 0 944.4 -- 87
2020-09-19 00:00:00 16.8 4 Oeste 8 Nordeste 0 944.7 -- 85
2020-09-18 23:00:00 17.6 3 Sudeste 18 Oeste 0 944.4 -- 83
2020-09-18 22:00:00 18.8 12 Oeste 28 Oeste 0 943.7 -- 77
2020-09-18 21:00:00 19.1 11 Sudoeste 18 Sudoeste 0 942.9 -- 76
2020-09-18 20:00:00 19.7 11 Sur 19 Sudeste 0 942.2 -- 74
2020-09-18 19:00:00 21.7 12 Sur 29 Sur 0 942 -- 64
2020-09-18 18:00:00 23.2 8 Sur 30 Sur 0 942.1 -- 59
2020-09-18 17:00:00 21.9 15 Sudoeste 26 Sudoeste 0 942.3 -- 60
2020-09-18 16:00:00 20.5 18 Sudoeste 33 Sudoeste 0 942.9 -- 62
2020-09-18 15:00:00 18.6 7 Sur 29 Sur 0 943.1 -- 76
2020-09-18 14:00:00 19.7 18 Sur 30 Sur 0.2 944.4 -- 78
2020-09-18 13:00:00 18.1 13 Sudoeste 31 Sudoeste 1 944.4 -- 84
2020-09-18 12:00:00 19 12 Sudoeste 22 Oeste 0.2 944.8 -- 79
2020-09-18 11:00:00 17.1 8 Sudoeste 10 Sudoeste 0 944.5 -- 87
2020-09-18 10:00:00 16 4 Nordeste 17 Este 0 944 -- 89
2020-09-18 09:00:00 15.9 8 Este 19 Este 3.8 943.6 -- 89
2020-09-18 08:00:00 16.4 3 Sudeste 9 Nordeste 1.2 944.2 -- 87
2020-09-18 07:00:00 16.8 3 Este 31 Oeste 0.8 944.7 -- 81
2020-09-18 06:00:00 17.7 24 Oeste 47 Oeste 0.2 944.1 -- 74
2020-09-18 05:00:00 18.8 27 Oeste 46 Sudoeste 0.2 944.2 -- 74
2020-09-18 04:00:00 19.5 3 Este 7 Nordeste 0 943.9 -- 69
2020-09-18 03:00:00 19.4 3 Oeste 8 Sudoeste 0 943.4 -- 69
2020-09-18 02:00:00 19.3 4 Oeste 13 Oeste 0 943.8 -- 70
2020-09-18 01:00:00 19.1 9 Oeste 13 Oeste 0 943.5 -- 73
2020-09-18 00:00:00 19.3 4 Oeste 8 Oeste 0 943.5 -- 75
2020-09-17 23:00:00 20.9 4 Oeste 9 Oeste 0 943.6 -- 71
2020-09-17 22:00:00 21.8 4 Oeste 9 Sudeste 0 943.5 -- 67
2020-09-17 21:00:00 22.8 4 Sudeste 11 Sur 0 942.3 -- 64
2020-09-17 20:00:00 23.9 4 Sudoeste 21 Sur 0 942.5 -- 57
2020-09-17 19:00:00 25.4 12 Sur 22 Sur 0 942.6 -- 51
2020-09-17 18:00:00 26.5 9 Sur 26 Sur 0 942.5 -- 41
2020-09-17 17:00:00 28.9 14 Sudeste 28 Sudeste 0 942.7 -- 33
2020-09-17 16:00:00 29.4 13 Sur -- -- 0 943 -- 33
2020-09-17 15:00:00 29 11 Sudeste 24 Sudeste 0 943.7 -- 35
2020-09-17 14:00:00 26.5 14 Sudeste 23 Sudeste 0 944.4 -- 34
2020-09-17 13:00:00 24.9 13 Sur 23 Sur 0 945 -- 32
2020-09-17 12:00:00 24 10 Sur 19 Sur 0 945.2 -- 32
2020-09-17 11:00:00 23.2 9 Oeste 16 Oeste 0 944.9 -- 37
2020-09-17 10:00:00 20.7 6 Sudoeste 9 Sudoeste 0 944.7 -- 52
2020-09-17 09:00:00 19.1 5 Oeste 12 Oeste 0 944.4 -- 60
2020-09-17 08:00:00 19 6 Oeste 9 Oeste 0 944.4 -- 55
2020-09-17 07:00:00 18.7 3 Este 7 Este 0 944.3 -- 57
2020-09-17 06:00:00 19 5 Oeste 6 Oeste 0 944.8 -- 56
2020-09-17 05:00:00 19 2 Sur 8 Oeste 0 945 -- 54
2020-09-17 04:00:00 19.3 4 Oeste 12 Oeste 0 945.4 -- 51
2020-09-17 03:00:00 19.4 6 Oeste 12 Oeste 0 945.8 -- 50
2020-09-17 02:00:00 20.7 6 Sudoeste 16 Sudoeste 0 945.6 -- 45
2020-09-17 01:00:00 21.7 11 Sur 20 Sudoeste 0 945.9 -- 41
2020-09-17 00:00:00 18.9 6 Oeste 12 Oeste 0 945.7 -- 52
2020-09-16 23:00:00 19.5 4 Oeste 10 Sudoeste 0 945.5 -- 51
2020-09-16 22:00:00 22 3 Sudoeste 6 Noroeste 0 945.3 -- 44
2020-09-16 21:00:00 24.2 0 Calma 14 Sudeste 0 944.7 -- 38
2020-09-16 20:00:00 25.7 9 Sur 16 Sudeste 0 944.7 -- 34
2020-09-16 19:00:00 27.2 11 Sudeste 22 Sur 0 944.5 -- 31
2020-09-16 18:00:00 29.5 14 Sur 24 Sudeste 0 944.5 -- 29
2020-09-16 17:00:00 30.1 13 Sudeste 25 Sudeste 0 944.8 -- 28
2020-09-16 16:00:00 31.3 12 Este 25 Sudeste 0 945.3 -- 21
2020-09-16 15:00:00 31.4 9 Sur 22 Sur 0 945.8 -- 23
2020-09-16 14:00:00 30.5 11 Sur 23 Sudeste 0 946.5 -- 24
2020-09-16 13:00:00 29.4 8 Sudeste 26 Sudeste 0 947.1 -- 25
2020-09-16 12:00:00 27.3 9 Sur 15 Sur 0 947.4 -- 32
2020-09-16 11:00:00 24.8 4 Este 8 Este 0 947.5 -- 41
2020-09-16 10:00:00 20.3 2 Sur 6 Nordeste 0 947.9 -- 52
2020-09-16 09:00:00 16.4 2 Este 11 Oeste 0 947.8 -- 65
2020-09-16 08:00:00 14 8 Oeste 15 Sudoeste 0 947.4 -- 71
2020-09-16 07:00:00 13.9 3 Oeste 10 Oeste 0 947.3 -- 69
2020-09-16 06:00:00 14.5 3 Oeste 10 Oeste 0 947.1 -- 66
2020-09-16 05:00:00 16.3 8 Oeste 11 Oeste 0 947.3 -- 58
2020-09-16 04:00:00 16.4 7 Oeste 13 Oeste 0 947.6 -- 59
2020-09-16 03:00:00 17.1 5 Sudoeste 8 Sudoeste 0 947.9 -- 55
2020-09-16 02:00:00 18.5 -- -- -- -- 0 948.2 -- 48
2020-09-16 01:00:00 18.9 9 Oeste 17 Oeste 0 948.4 -- 42
2020-09-16 00:00:00 19.1 8 Oeste 15 Oeste 0 948.3 -- 43
2020-09-15 23:00:00 19.3 5 Sudoeste 12 Oeste 0 948.3 -- 47
2020-09-15 22:00:00 20.8 6 Oeste 9 Oeste 0 947.9 -- 46
2020-09-15 21:00:00 24 7 Sudoeste 14 Sudeste 0 947.5 -- 37
2020-09-15 20:00:00 26.2 10 Sudeste 22 Sur 0 947.1 -- 31
2020-09-15 19:00:00 28.5 14 Sudeste 27 Sudeste 0 947 -- 30
2020-09-15 18:00:00 29.8 12 Sur 26 Sur 0 947 -- 31
2020-09-15 17:00:00 31.2 9 Sudeste 27 Sudeste 0 947.1 -- 26
2020-09-15 16:00:00 31.4 8 Sudeste 21 Sudeste 0 947.7 -- 24
2020-09-15 15:00:00 30.4 10 Sur 23 Sudoeste 0 948.3 -- 27
2020-09-15 14:00:00 28.8 7 Sur 21 Sur 0 949 -- 31
2020-09-15 13:00:00 28.8 6 Sudoeste 16 Sur 0 949.5 -- 30
2020-09-15 12:00:00 26.7 8 Oeste 18 Sudoeste 0 950 -- 40
2020-09-15 11:00:00 23.8 4 Sudeste 8 Este 0 950 -- 50
2020-09-15 10:00:00 21 2 Este 6 Sudoeste 0 949.5 -- 59
2020-09-15 09:00:00 16.7 2 Oeste 8 Oeste 0 949.3 -- 79
2020-09-15 08:00:00 15.1 4 Sudoeste 9 Oeste 0 949.4 -- 80
2020-09-15 07:00:00 16.4 2 Este 12 Oeste 0 948.9 -- 75
2020-09-15 06:00:00 16.4 8 Oeste 13 Oeste 0 949 -- 74
2020-09-15 05:00:00 18.8 8 Oeste 15 Oeste 0 949.4 -- 63
2020-09-15 04:00:00 17.5 4 Sudoeste 14 Oeste 0 949.2 -- 72
2020-09-15 03:00:00 18.7 9 Oeste 14 Oeste 0 949.5 -- 67
2020-09-15 02:00:00 19.6 5 Norte 8 Norte 0 949.7 -- 66
2020-09-15 01:00:00 20 6 Este 17 Este 0 950 -- 64
2020-09-15 00:00:00 21 8 Norte 13 Nordeste 0 950.2 -- 60
2020-09-14 23:00:00 21.1 3 Sudeste 8 Oeste 0 950.1 -- 49
2020-09-14 22:00:00 21.9 3 Sudeste 12 Sudoeste 0 949.4 -- 46
2020-09-14 21:00:00 22.7 6 Oeste 13 Sur 0 949.2 -- 44
2020-09-14 20:00:00 24.6 9 Sur 27 Sudeste 0 948.8 -- 42
2020-09-14 19:00:00 26.2 15 Sur 27 Sur 0 948.4 -- 33
2020-09-14 18:00:00 28.6 12 Sur 29 Sur 0 948.3 -- 32
2020-09-14 17:00:00 29.6 9 Sudeste 24 Este 0 948.8 -- 29
2020-09-14 16:00:00 29.9 11 Sudeste 29 Sudeste 0 949.4 -- 26
2020-09-14 15:00:00 29.3 13 Sur 28 Sudeste 0 950 -- 30
2020-09-14 14:00:00 28.7 9 Sudeste 22 Sudeste 0 950.3 -- 29
2020-09-14 13:00:00 27.4 9 Sur 19 Sudeste 0 950.8 -- 35
2020-09-14 12:00:00 25.6 6 Sur 14 Sur 0 951 -- 39
2020-09-14 11:00:00 23.7 7 Este 12 Nordeste 0 950.7 -- 48
2020-09-14 10:00:00 20 2 Este 10 Nordeste 0 950.6 -- 60
2020-09-14 09:00:00 16 3 Nordeste 12 Oeste 0 950.6 -- 75
2020-09-14 08:00:00 12.8 4 Oeste 8 Oeste 0 950.1 -- 82
2020-09-14 07:00:00 12.7 4 Sudoeste 7 Sudoeste 0 950.1 -- 81
2020-09-14 06:00:00 13.4 2 Oeste 5 Sudoeste 0 950.2 -- 78
2020-09-14 05:00:00 14.8 4 Sudoeste 8 Sudoeste 0 950.5 -- 73
2020-09-14 04:00:00 14.9 8 Sudoeste 10 Oeste 0 950.8 -- 74
2020-09-14 03:00:00 15.6 4 Sudoeste 9 Oeste 0 951 -- 70
2020-09-14 02:00:00 17.2 8 Oeste 13 Oeste 0 951.4 -- 67
2020-09-14 01:00:00 17.9 11 Oeste 15 Oeste 0 951.4 -- 64
2020-09-14 00:00:00 18.1 8 Oeste 13 Oeste 0 951.4 -- 65
2020-09-13 23:00:00 18.9 0 Calma 6 Norte 0 950.9 -- 63
2020-09-13 22:00:00 21.9 0 Calma 6 Sudeste 0 950.4 -- 52
2020-09-13 21:00:00 23.8 3 Sudeste 15 Sur 0 950 -- 45
2020-09-13 20:00:00 25.7 12 Sur 20 Sudeste 0 949.9 -- 37
2020-09-13 19:00:00 28.3 12 Sudeste 25 Sur 0 949.7 -- 32
2020-09-13 18:00:00 27.8 10 Sur 24 Sur 0 949.7 -- 32
2020-09-13 17:00:00 29.3 12 Sur 23 Sudeste 0 949.6 -- 28
2020-09-13 16:00:00 30.2 12 Sudeste 28 Sudeste 0 949.9 -- 27
2020-09-13 15:00:00 30.3 10 Sur 28 Sudeste 0 950.1 -- 27
2020-09-13 14:00:00 29.4 9 Sudeste 28 Sudeste 0 950.4 -- 28
2020-09-13 13:00:00 28.5 10 Sur 20 Sudeste 0 950.8 -- 31
2020-09-13 12:00:00 27.1 8 Nordeste 17 Sudeste 0 951.1 -- 33
2020-09-13 11:00:00 25 5 Este 10 Sudeste 0 950.7 -- 40
2020-09-13 10:00:00 20 3 Sudeste 5 Sudeste 0 950.3 -- 56
2020-09-13 09:00:00 15.2 3 Este 6 Sudoeste 0 950.1 -- 75
2020-09-13 08:00:00 12 3 Oeste 5 Sudoeste 0 949.7 -- 82
2020-09-13 07:00:00 12.7 0 Calma 6 Oeste 0 949.4 -- 80
2020-09-13 06:00:00 13.1 2 Oeste 8 Oeste 0 949 -- 77
2020-09-13 05:00:00 13.9 3 Oeste 8 Oeste 0 949.1 -- 74
2020-09-13 04:00:00 14.3 3 Oeste 7 Oeste 0 949.1 -- 73
2020-09-13 03:00:00 15.5 6 Oeste 10 Oeste 0 949.3 -- 69
2020-09-13 02:00:00 16.7 6 Oeste 13 Sudoeste 0 949.7 -- 65
2020-09-13 01:00:00 18.2 11 Oeste 15 Oeste 0 949.5 -- 61
2020-09-13 00:00:00 18 8 Oeste 13 Oeste 0 949 -- 64
2020-09-12 23:00:00 19.3 4 Sudoeste 11 Sudoeste 0 948.6 -- 60
2020-09-12 22:00:00 21.8 3 Sudoeste 14 Sudoeste 0 947.9 -- 50
2020-09-12 21:00:00 23.4 3 Sudoeste 14 Sudoeste 0 946.9 -- 43
2020-09-12 20:00:00 25.6 9 Sudeste 22 Sur 0 946.5 -- 35
2020-09-12 19:00:00 28.4 14 Sudeste 27 Sudeste 0 946.1 -- 29
2020-09-12 18:00:00 30.3 12 Sur 23 Sudeste 0 945.8 -- 24
2020-09-12 17:00:00 31.2 12 Sudeste 23 Sur 0 945.6 -- 22
2020-09-12 16:00:00 31.4 8 Sudeste 26 Sudeste 0 945.8 -- 22
2020-09-12 15:00:00 30.8 13 Sur 25 Sudeste 0 946.2 -- 22
2020-09-12 14:00:00 30 10 Sudeste 21 Sudeste 0 946.4 -- 23
2020-09-12 13:00:00 28.5 8 Sur 18 Sudoeste 0 946.7 -- 27
2020-09-12 12:00:00 26.2 10 Sudoeste 17 Sudeste 0 946.9 -- 33
2020-09-12 11:00:00 23.9 4 Sudoeste 8 Norte 0 946.6 -- 52
2020-09-12 10:00:00 20.8 4 Este 7 Nordeste 0 946.2 -- 73
2020-09-12 09:00:00 16.8 2 Sur 8 Oeste 0 945.9 -- 86
2020-09-12 08:00:00 14.3 2 Oeste 8 Sudoeste 0 945.1 -- 84
2020-09-12 07:00:00 14.5 5 Sudoeste 12 Oeste 0 944.7 -- 80
2020-09-12 06:00:00 15 5 Oeste 12 Oeste 0 944.4 -- 78
2020-09-12 05:00:00 14.9 6 Oeste 10 Oeste 0 944.2 -- 73
2020-09-12 04:00:00 15.1 6 Oeste 12 Oeste 0 944 -- 71
2020-09-12 03:00:00 16.3 7 Oeste 15 Oeste 0 944.1 -- 66
2020-09-12 02:00:00 17.3 6 Oeste 14 Oeste 0 944.2 -- 62
2020-09-12 01:00:00 17.3 4 Oeste 8 Oeste 0 943.9 -- 63
2020-09-12 00:00:00 19.5 5 Oeste 12 Oeste 0 943.7 -- 55
2020-09-11 23:00:00 20.4 0 Calma 9 Sudoeste 0 943.3 -- 53
2020-09-11 22:00:00 22.7 6 Sudoeste 17 Oeste 0 942.8 -- 45
2020-09-11 21:00:00 23.7 9 Sudoeste 24 Sudeste 0 942.2 -- 42
2020-09-11 20:00:00 25.7 14 Sur 32 Sudeste 0 941.7 -- 36
2020-09-11 19:00:00 29.3 16 Sur 33 Sur 0 941.3 -- 29
2020-09-11 18:00:00 31 14 Sur 25 Sur 0 941.1 -- 21
2020-09-11 17:00:00 30.9 9 Sudeste 22 Sudeste 0 941.5 -- 20
2020-09-11 16:00:00 31.7 11 Oeste 20 Sur 0 942 -- 19
2020-09-11 15:00:00 30.9 11 Oeste 25 Sudoeste 0 942.5 -- 23
2020-09-11 14:00:00 29.8 15 Sur 28 Sur 0 942.9 -- 24
2020-09-11 13:00:00 28.4 8 Sudoeste 23 Sudoeste 0.2 943.6 -- 29
2020-09-11 12:00:00 26.2 15 Sur 26 Sur 0 943.9 -- 32
2020-09-11 11:00:00 23.9 3 Sudeste 10 Este 0 944 -- 48
2020-09-11 10:00:00 20.3 3 Este 6 Este 0 943.8 -- 64
2020-09-11 09:00:00 15.9 3 Sudoeste 7 Sudoeste 0 943.6 -- 83
2020-09-11 08:00:00 12.9 3 Sudoeste 5 Sudoeste 0 943.3 -- 85
2020-09-11 07:00:00 13.8 3 Noroeste 12 Oeste 0 943.2 -- 85
2020-09-11 06:00:00 13.4 2 Oeste 11 Oeste 0 943.3 -- 84
2020-09-11 05:00:00 14.3 8 Oeste 10 Oeste 0 943.6 -- 83
2020-09-11 04:00:00 14.9 6 Sudoeste 10 Oeste 0 943.9 -- 83
2020-09-11 03:00:00 15.9 3 Sudoeste 14 Oeste 0 944.5 -- 82
2020-09-11 02:00:00 16.4 9 Oeste 13 Oeste 0 944.6 -- 80
2020-09-11 01:00:00 16.4 4 Oeste 8 Sudoeste 0 944.8 -- 79
2020-09-11 00:00:00 17.4 6 Oeste 9 Sudoeste 0 944.9 -- 77
2020-09-10 23:00:00 18.3 3 Oeste 9 Sudoeste 0 944.8 -- 72
2020-09-10 22:00:00 19.3 6 Sudoeste 10 Oeste 0 944.8 -- 70
2020-09-10 21:00:00 21.6 4 Sudeste 15 Sudoeste 0 944.2 -- 61
2020-09-10 20:00:00 23.5 10 Sur 24 Sur 0 943.7 -- 55
2020-09-10 19:00:00 24.5 10 Sur 27 Sur 0 943.7 -- 51
2020-09-10 18:00:00 26.7 13 Sudeste 23 Este 0 943.6 -- 42
2020-09-10 17:00:00 28 13 Este 25 Nordeste 0 943.9 -- 35
2020-09-10 16:00:00 27.7 8 Sudeste 19 Este 0 944.4 -- 30
2020-09-10 15:00:00 26.5 8 Sudeste 22 Norte 0 945 -- 33
2020-09-10 14:00:00 27.6 8 Nordeste 18 Este 0 945.6 -- 31
2020-09-10 13:00:00 26 7 Nordeste 17 Nordeste 0 946.3 -- 38
2020-09-10 12:00:00 24.6 7 Este 15 Este 0 946.6 -- 46
2020-09-10 11:00:00 22.3 3 Sudeste 12 Este 0 946.8 -- 58
2020-09-10 10:00:00 18.6 2 Este 6 Sudeste 0 946.6 -- 73
2020-09-10 09:00:00 14.2 2 Sur 4 Oeste 0 946.4 -- 90
2020-09-10 08:00:00 12.4 0 Calma 8 Sudoeste 0 946.4 -- 90
2020-09-10 07:00:00 12.5 6 Sudoeste 8 Sudoeste 0 946.1 -- 89
2020-09-10 06:00:00 13.3 3 Sudoeste 9 Oeste 0 946.3 -- 88
2020-09-10 05:00:00 13.7 4 Oeste 8 Este 0 946.4 -- 85
2020-09-10 04:00:00 15 4 Oeste 14 Oeste 0 946.9 -- 84
2020-09-10 03:00:00 15.7 12 Oeste 15 Sudoeste 0 947.2 -- 82
2020-09-10 02:00:00 15.4 2 Oeste 15 Oeste 0 947.6 -- 79
2020-09-10 01:00:00 15.8 8 Oeste 11 Oeste 0 948 -- 78
2020-09-10 00:00:00 16.4 4 Sudoeste 7 Oeste 0 948.1 -- 77
2020-09-09 23:00:00 17.7 2 Oeste 6 Sudeste 0 947.9 -- 72
2020-09-09 22:00:00 19.6 2 Sudeste 8 Sudeste 0 947.5 -- 65
2020-09-09 21:00:00 21.3 6 Sudeste 18 Sudeste 0 946.9 -- 60
2020-09-09 20:00:00 23.6 8 Este 21 Este 0 946.3 -- 46
2020-09-09 19:00:00 25.3 9 Este 25 Este 0 946.1 -- 39
2020-09-09 18:00:00 27.1 5 Nordeste 19 Nordeste 0 946 -- 30
2020-09-09 17:00:00 26.7 4 Este 15 Este 0 946.3 -- 31
2020-09-09 16:00:00 26.3 6 Sudeste 21 Nordeste 0 946.8 -- 33
2020-09-09 15:00:00 26.3 8 Nordeste 19 Este 0 947.4 -- 34
2020-09-09 14:00:00 25.5 10 Este 23 Este 0 948 -- 37
2020-09-09 13:00:00 24.9 9 Este 17 Este 0 948.5 -- 39
2020-09-09 12:00:00 23.2 6 Este 18 Nordeste 0 948.9 -- 45
2020-09-09 11:00:00 20.7 12 Nordeste 23 Norte 0 949.1 -- 53
2020-09-09 10:00:00 18.6 12 Norte 24 Norte 0 949 -- 59
2020-09-09 09:00:00 14.7 2 Sur 8 Este 0 948.7 -- 67
2020-09-09 08:00:00 12.7 3 Nordeste 8 Sudoeste 0 948.3 -- 74
2020-09-09 07:00:00 12.5 3 Sudoeste 7 Oeste 0 948.1 -- 72
2020-09-09 06:00:00 11.9 5 Sudoeste 9 Sudoeste 0 948.1 -- 77
2020-09-09 05:00:00 11.5 3 Sudeste 8 Sudoeste 0 948.4 -- 75
2020-09-09 04:00:00 11.7 2 Noroeste 6 Sudoeste 0 948.7 -- 73
2020-09-09 03:00:00 11.7 0 Calma 4 Sudoeste 0 948.9 -- 72
2020-09-09 02:00:00 12.3 3 Oeste 9 Oeste 0 949.3 -- 68
2020-09-09 01:00:00 14.4 10 Oeste 17 Oeste 0 949.5 -- 58
2020-09-09 00:00:00 14.2 11 Oeste 14 Oeste 0 949.7 -- 61
2020-09-08 23:00:00 16.1 0 Calma 11 Este 0 950 -- 55
2020-09-08 22:00:00 18 8 Nordeste 15 Este 0 949.7 -- 47
2020-09-08 21:00:00 19.3 8 Este 22 Este 0 949.1 -- 46
2020-09-08 20:00:00 20.6 13 Este 30 Nordeste 0 948.8 -- 47
2020-09-08 19:00:00 22.1 17 Nordeste 28 Nordeste 0 948.4 -- 46
2020-09-08 18:00:00 23.5 14 Sudeste 25 Este 0 948.3 -- 40
2020-09-08 17:00:00 22.7 16 Nordeste 27 Nordeste 0 948.3 -- 40
2020-09-08 16:00:00 22.9 10 Este 24 Nordeste 0 948.5 -- 39
2020-09-08 15:00:00 22.1 6 Norte 20 Nordeste 0 948.7 -- 41
2020-09-08 14:00:00 23.8 9 Este 24 Nordeste 0 949.1 -- 36
2020-09-08 13:00:00 22.3 7 Nordeste 22 Este 0 949.5 -- 39
2020-09-08 12:00:00 20.8 10 Nordeste 21 Este 0 950 -- 45
2020-09-08 11:00:00 19.5 3 Sur 13 Nordeste 0 950 -- 55
2020-09-08 10:00:00 16.7 9 Nordeste 30 Nordeste 0 949.8 -- 72
2020-09-08 09:00:00 15.6 14 Nordeste 23 Nordeste 0 949.6 -- 87
2020-09-08 08:00:00 14.2 9 Nordeste 17 Nordeste 0 948.8 -- 91
2020-09-08 07:00:00 13.3 5 Sudeste 7 Este 0 948.5 -- 89
2020-09-08 06:00:00 13.3 0 Calma 4 Sudeste 0 948.2 -- 88
2020-09-08 05:00:00 13.6 2 Oeste 4 Sudoeste 0 948.2 -- 89
2020-09-08 04:00:00 14.3 2 Este 6 Este 0 948.1 -- 87
2020-09-08 03:00:00 15 4 Este 10 Nordeste 0 948.3 -- 86
2020-09-08 02:00:00 15.6 7 Nordeste 12 Nordeste 0 948.2 -- 85
2020-09-08 01:00:00 16.1 10 Nordeste 18 Nordeste 0 948.2 -- 83
2020-09-08 00:00:00 16.5 9 Nordeste 20 Nordeste 0 948.4 -- 80
2020-09-07 23:00:00 17.3 12 Nordeste 24 Nordeste 0 948.1 -- 76
2020-09-07 22:00:00 18 10 Este 22 Este 0 947.4 -- 70
2020-09-07 21:00:00 18.4 14 Este 32 Nordeste 0 946.5 -- 62
2020-09-07 20:00:00 19.5 24 Nordeste 39 Nordeste 0 945.5 -- 60
2020-09-07 19:00:00 21.2 23 Nordeste 35 Nordeste 0 944.7 -- 55
2020-09-07 18:00:00 22.6 16 Este 41 Nordeste 0 944.4 -- 49
2020-09-07 17:00:00 23.2 31 Nordeste 45 Nordeste 0 944.2 -- 47
2020-09-07 16:00:00 24.4 16 Nordeste 28 Nordeste 0 944.1 -- 45
2020-09-07 15:00:00 22.6 22 Nordeste 40 Nordeste 0 944.9 -- 51
2020-09-07 14:00:00 22.7 22 Nordeste 36 Nordeste 0 945 -- 54
2020-09-07 13:00:00 22.6 23 Nordeste 34 Nordeste 0 944.9 -- 57
2020-09-07 12:00:00 22.8 18 Este 31 Nordeste 0 944.9 -- 61
2020-09-07 11:00:00 21.7 7 Nordeste 13 Este 0 944.7 -- 69
2020-09-07 10:00:00 19 5 Nordeste 10 Nordeste 0 944.2 -- 83
2020-09-07 09:00:00 17.9 0 Calma 10 Oeste 0 943.8 -- 88
2020-09-07 08:00:00 16.7 7 Sudoeste 10 Sudoeste 0 943.3 -- 89
2020-09-07 07:00:00 15.6 3 Sudoeste 7 Sudoeste 0 943.1 -- 90
2020-09-07 06:00:00 15.3 4 Sudoeste 10 Oeste 0 942.9 -- 89
2020-09-07 05:00:00 15.7 3 Oeste 8 Sudoeste 0 943 -- 87
2020-09-07 04:00:00 16.3 5 Sudoeste 8 Oeste 0 943.3 -- 85
2020-09-07 03:00:00 17.4 6 Oeste 12 Sudoeste 0 943.7 -- 83
2020-09-07 02:00:00 17.5 9 Sudoeste 12 Oeste 0 944 -- 82
2020-09-07 01:00:00 18.4 4 Sudoeste 10 Sudoeste 0 944.1 -- 79
2020-09-07 00:00:00 18.9 6 Sudoeste 13 Sudoeste 0 944.2 -- 76
2020-09-06 23:00:00 20.8 9 Oeste 17 Oeste 0 944 -- 69
2020-09-06 22:00:00 21.8 9 Sudoeste 17 Oeste 0 943.5 -- 65
2020-09-06 21:00:00 23.7 9 Oeste 21 Sur 0 942.9 -- 56
2020-09-06 20:00:00 26.6 11 Sur 20 Sudeste 0 942.6 -- 43
2020-09-06 19:00:00 29 11 Sur 20 Sur 0 942.8 -- 32
2020-09-06 18:00:00 30 6 Sur 19 Sur 0 943 -- 29
2020-09-06 17:00:00 30.2 3 Sudeste 22 Sudeste 0 943.3 -- 25
2020-09-06 16:00:00 29.6 7 Sudoeste 18 Sudoeste 0 943.9 -- 27
2020-09-06 15:00:00 28.6 8 Sudeste 18 Sur 0 944.5 -- 31
2020-09-06 14:00:00 26.8 6 Este 23 Sudeste 0 945 -- 36
2020-09-06 13:00:00 25.6 8 Este 19 Este 0 945.6 -- 44
2020-09-06 12:00:00 24.1 5 Este 12 Este 0 945.9 -- 49
2020-09-06 11:00:00 19.5 3 Este 9 Este 0 946 -- 77
2020-09-06 10:00:00 16.3 3 Este 8 Este 0 945.7 -- 91
2020-09-06 09:00:00 15.6 3 Nordeste 6 Nordeste 0 945.6 -- 91
2020-09-06 08:00:00 14.6 0 Calma 5 Nordeste 0 945.3 -- 92
2020-09-06 07:00:00 15 2 Este 12 Oeste 0 944.9 -- 93
2020-09-06 06:00:00 14.8 8 Oeste 12 Oeste 0 945.2 -- 92
2020-09-06 05:00:00 14.2 6 Oeste 8 Oeste 0 945.3 -- 90
2020-09-06 04:00:00 14.6 2 Sur 8 Oeste 0 945.5 -- 89
2020-09-06 03:00:00 15.4 5 Oeste 9 Oeste 0 946.1 -- 88
2020-09-06 02:00:00 16.3 5 Oeste 9 Oeste 0 946.5 -- 87
2020-09-06 01:00:00 17 3 Noroeste 8 Sudoeste 0 946.7 -- 83
2020-09-06 00:00:00 17.8 3 Oeste 9 Sudoeste 0 946.7 -- 81
2020-09-05 23:00:00 18.9 3 Oeste 5 Sudoeste 0 946.5 -- 78
2020-09-05 22:00:00 20.8 3 Sudoeste 7 Sudoeste 0 946.1 -- 70
2020-09-05 21:00:00 22.9 5 Sudeste 15 Sur 0 945.5 -- 62
2020-09-05 20:00:00 26.1 9 Sudeste 20 Sudeste 0 945.1 -- 49
2020-09-05 19:00:00 28.1 13 Sudeste 27 Sudeste 0 945 -- 40
2020-09-05 18:00:00 30.1 8 Este 23 Este 0 944.9 -- 26
2020-09-05 17:00:00 30.4 6 Este 18 Este 0 945.4 -- 21
2020-09-05 16:00:00 30.1 9 Este 21 Este 0 946.1 -- 23
2020-09-05 15:00:00 28.8 5 Nordeste 19 Sudeste 0 946.7 -- 26
2020-09-05 14:00:00 27.2 6 Nordeste 14 Sudeste 0 947.2 -- 32
2020-09-05 13:00:00 25.7 7 Sudoeste 18 Sudoeste 0 948 -- 40
2020-09-05 12:00:00 24.7 4 Sudeste 17 Sudeste 0 948.4 -- 46
2020-09-05 11:00:00 22.7 3 Sudeste 10 Este 0 948.5 -- 58
2020-09-05 10:00:00 20.4 4 Este 8 Este 0 948.5 -- 70
2020-09-05 09:00:00 16.6 3 Sudeste 6 Sudoeste 0 948.4 -- 88
2020-09-05 08:00:00 14.8 3 Oeste 8 Oeste 0 948.3 -- 89
2020-09-05 07:00:00 15.9 0 Calma 5 Sudoeste 0 948 -- 88
2020-09-05 06:00:00 15.5 4 Sudoeste 5 Sudoeste 0 948.3 -- 88
2020-09-05 05:00:00 16.5 2 Sur 5 Nordeste 0 948.4 -- 84
2020-09-05 04:00:00 17.9 4 Sudeste 11 Oeste 0 948.8 -- 81
2020-09-05 03:00:00 18.8 9 Sudoeste 12 Oeste 0 949.3 -- 79
2020-09-05 02:00:00 17.9 7 Oeste 13 Oeste 0 949.9 -- 82
2020-09-05 01:00:00 17.2 8 Sudoeste 13 Oeste 0 950.2 -- 83
2020-09-05 00:00:00 18.4 9 Sudoeste 13 Oeste 0 950.3 -- 79
2020-09-04 23:00:00 19.3 8 Oeste 13 Sudoeste 0 950.1 -- 77
2020-09-04 22:00:00 20.6 9 Sudoeste 13 Sudoeste 0 949.7 -- 70
2020-09-04 21:00:00 22.2 6 Sudoeste 17 Sudeste 0 949.3 -- 63
2020-09-04 20:00:00 24.6 13 Sudeste 21 Sudeste 0 948.9 -- 54
2020-09-04 19:00:00 27 10 Sur 23 Sudeste 0 948.9 -- 40
2020-09-04 18:00:00 28.3 9 Sudeste 21 Este 0 949.2 -- 31
2020-09-04 17:00:00 28.4 8 Sudeste 22 Este 0 949.6 -- 30
2020-09-04 16:00:00 28 8 Sudeste 24 Sudeste 0 950.2 -- 31
2020-09-04 15:00:00 27.3 13 Sudeste 26 Sudeste 0 951 -- 35
2020-09-04 14:00:00 26.5 10 Sur 23 Sur 0 951.5 -- 39
2020-09-04 13:00:00 25.6 9 Sudeste 24 Sur 0 952.1 -- 41
2020-09-04 12:00:00 24 8 Sudeste 17 Sudeste 0 952.3 -- 49
2020-09-04 11:00:00 22.1 5 Este 8 Sudeste 0 952.3 -- 56
2020-09-04 10:00:00 18.5 3 Este 6 Nordeste 0 951.9 -- 73
2020-09-04 09:00:00 14.6 3 Nordeste 7 Sudoeste 0 951.5 -- 90
2020-09-04 08:00:00 12.1 5 Oeste 6 Oeste 0 951.3 -- 91
2020-09-04 07:00:00 12.6 2 Noroeste 4 Oeste 0 950.8 -- 90
2020-09-04 06:00:00 13.3 5 Oeste 12 Oeste 0 950.6 -- 90
2020-09-04 05:00:00 13.7 4 Sudoeste 14 Oeste 0 950.6 -- 88
2020-09-04 04:00:00 14.2 8 Oeste 13 Oeste 0 950.8 -- 87
2020-09-04 03:00:00 15.2 6 Oeste 10 Oeste 0 951.1 -- 85
2020-09-04 02:00:00 16.2 10 Oeste 13 Oeste 0 951.6 -- 82
2020-09-04 01:00:00 16.6 3 Oeste 15 Oeste 0 951.6 -- 80
2020-09-04 00:00:00 17.1 9 Oeste 13 Sudoeste 0 951.5 -- 79
2020-09-03 23:00:00 17.9 5 Sudoeste 8 Oeste 0 951.1 -- 74
2020-09-03 22:00:00 20.1 5 Sudoeste 13 Sur 0 950.5 -- 57
2020-09-03 21:00:00 21.6 9 Sur 18 Sur 0 949.8 -- 57
2020-09-03 20:00:00 24.3 10 Sur 25 Sudeste 0 949.3 -- 51
2020-09-03 19:00:00 26.3 10 Sudeste 19 Sur 0 949.1 -- 43
2020-09-03 18:00:00 26.7 11 Sudeste 23 Sur 0 948.8 -- 39
2020-09-03 17:00:00 28.4 7 Sur 25 Sudeste 0 948.7 -- 35
2020-09-03 16:00:00 28.6 12 Sudeste 23 Sudeste 0 948.8 -- 34
2020-09-03 15:00:00 28.3 9 Sur 22 Sur 0 949.1 -- 32
2020-09-03 14:00:00 27.2 7 Sur 21 Sur 0 949.4 -- 36
2020-09-03 13:00:00 25.3 7 Sur 17 Sudeste 0 949.7 -- 47
2020-09-03 12:00:00 23.4 8 Sur 16 Sur 0 949.9 -- 54
2020-09-03 11:00:00 21.9 4 Nordeste 9 Nordeste 0.2 949.5 -- 67
2020-09-03 10:00:00 18.8 2 Este 6 Este 0 949 -- 84
2020-09-03 09:00:00 15.8 2 Este 4 Norte 0 948.6 -- 92
2020-09-03 08:00:00 13.7 0 Calma 4 Nordeste 0 948.2 -- 92
2020-09-03 07:00:00 14.1 5 Oeste 8 Oeste 0 947.7 -- 92
2020-09-03 06:00:00 14.7 3 Norte 11 Sudoeste 0 947.6 -- 91
2020-09-03 05:00:00 14.9 4 Oeste 13 Oeste 0 947.4 -- 90
2020-09-03 04:00:00 15.4 10 Oeste 12 Oeste 0 947.3 -- 91
2020-09-03 03:00:00 15.5 6 Oeste 10 Oeste 0 947.5 -- 89
2020-09-03 02:00:00 15.9 6 Oeste 8 Oeste 0 947.5 -- 88
2020-09-03 01:00:00 16.9 3 Nordeste 11 Sudoeste 0 947.2 -- 85
2020-09-03 00:00:00 17 9 Oeste 15 Oeste 0 946.8 -- 85
2020-09-02 23:00:00 17.9 7 Sudoeste 13 Oeste 0 946.4 -- 82
2020-09-02 22:00:00 18.8 9 Sudoeste 17 Sudoeste 0 945.8 -- 78
2020-09-02 21:00:00 19.6 9 Sudoeste 12 Oeste 0 945.1 -- 75
2020-09-02 20:00:00 20.8 8 Sudoeste 24 Sudoeste 0 944.6 -- 70
2020-09-02 19:00:00 20.2 15 Sudoeste 21 Sudoeste 0 944.4 -- 77
2020-09-02 18:00:00 20.6 8 Sudoeste -- -- 11.8 943.8 -- 76
2020-09-02 17:00:00 23.7 -- -- -- -- 0 943.2 -- 60
2020-09-02 16:00:00 28.5 7 Este 24 Sur 0 943 -- 31
2020-09-02 15:00:00 28.2 9 Sudeste 21 Sur 0 943.4 -- 28
2020-09-02 14:00:00 27.5 13 Sur 22 Sur 0 943.8 -- 28
2020-09-02 13:00:00 26.4 6 Este 23 Sudeste 0 944 -- 30
2020-09-02 12:00:00 23.9 10 Este 24 Nordeste 0 944.1 -- 46
2020-09-02 11:00:00 22.3 10 Nordeste 19 Nordeste 0 943.8 -- 58
2020-09-02 10:00:00 20.6 3 Este 14 Nordeste 0 943.2 -- 67
2020-09-02 09:00:00 17 3 Sudeste 7 Oeste 0 943 -- 82
2020-09-02 08:00:00 15.5 3 Oeste 8 Sudoeste 0 942.6 -- 83
2020-09-02 07:00:00 15.1 5 Oeste 9 Oeste 0 942.1 -- 83
2020-09-02 06:00:00 15.8 5 Oeste 8 Oeste 0 941.8 -- 81
2020-09-02 05:00:00 17 3 Noroeste 8 Sudoeste 0 941.5 -- 79
2020-09-02 04:00:00 17.2 4 Oeste 8 Oeste 0 941.4 -- 76
2020-09-02 03:00:00 17.4 4 Oeste 5 Sudoeste 0 941.6 -- 75
2020-09-02 02:00:00 18.4 2 Sur 9 Nordeste 0 941.8 -- 72
2020-09-02 01:00:00 18.9 6 Nordeste 13 Este 0 941.5 -- 71
2020-09-02 00:00:00 19.6 5 Nordeste 11 Nordeste 0 941.2 -- 68
2020-09-01 23:00:00 20.1 2 Este 11 Este 0 941.1 -- 65
2020-09-01 22:00:00 20.9 8 Sudoeste 18 Sudoeste 0 940.3 -- 58
2020-09-01 21:00:00 22.2 12 Sudoeste 17 Sudoeste 0 939.5 -- 53
2020-09-01 20:00:00 24.1 12 Sudoeste 19 Sur 0 939.3 -- 39
2020-09-01 19:00:00 26.2 10 Sur 26 Sur 0 939.4 -- 34
2020-09-01 18:00:00 25.4 6 Sur 15 Sur 0 939.6 -- 33
2020-09-01 17:00:00 26.6 5 Sur 15 Sudeste 0 939.6 -- 33
2020-09-01 16:00:00 23.7 12 Sudoeste 21 Sudoeste 0 940.6 -- 42
2020-09-01 15:00:00 24.1 9 Sudeste 19 Sudoeste 0 941 -- 45
2020-09-01 14:00:00 23.7 6 Sur 16 Oeste 0 941.8 -- 47
2020-09-01 13:00:00 21.5 6 Nordeste 15 Norte 0 942.4 -- 58
2020-09-01 12:00:00 20.8 8 Norte 12 Nordeste 0 942.6 -- 60
2020-09-01 11:00:00 20.9 4 Sudeste 12 Sudeste 0 942.5 -- 61
2020-09-01 10:00:00 19.3 4 Norte 8 Norte 0 942.5 -- 68
2020-09-01 09:00:00 14.9 0 Calma 9 Sudoeste 0 942.5 -- 87
2020-09-01 08:00:00 11.1 3 Oeste 6 Oeste 0 942.5 -- 88
2020-09-01 07:00:00 12.3 2 Sudeste 12 Oeste 0 942.5 -- 87
2020-09-01 06:00:00 12.6 9 Oeste 11 Oeste 0 942.5 -- 88
2020-09-01 05:00:00 13.1 4 Oeste 6 Oeste 0 943 -- 84
2020-09-01 04:00:00 14.3 2 Nordeste 14 Oeste 0 943.5 -- 81
2020-09-01 03:00:00 15.1 9 Oeste 13 Oeste 0 944.3 -- 78
2020-09-01 02:00:00 16 9 Oeste 13 Oeste 0 945 -- 77
2020-09-01 01:00:00 17.4 9 Oeste 15 Oeste 0 945 -- 72
2020-09-01 00:00:00 17.8 7 Sudoeste 15 Sudoeste 0 945.1 -- 67
2020-08-31 23:00:00 18.4 8 Sudoeste 17 Sudoeste 0 944.9 -- 64
2020-08-31 22:00:00 19.6 11 Sudoeste 22 Sudoeste 0 944.5 -- 58
2020-08-31 21:00:00 20.9 13 Sudoeste 24 Sudoeste 0 943.7 -- 53
2020-08-31 20:00:00 23.1 14 Sur 30 Sudeste 0 943.4 -- 46
2020-08-31 19:00:00 26.1 14 Sur 29 Sudeste 0 943.3 -- 36
2020-08-31 18:00:00 27.6 12 Sudoeste 27 Oeste 0 943.3 -- 23
2020-08-31 17:00:00 27.4 15 Sudoeste 32 Sudoeste 0 944 -- 25
2020-08-31 16:00:00 27.6 14 Sudoeste 30 Sudoeste 0 944.6 -- 24
2020-08-31 15:00:00 26.6 15 Sur 28 Sudoeste 0 945.3 -- 25
2020-08-31 14:00:00 25.8 10 Sudoeste 26 Sur 0 945.7 -- 24
2020-08-31 13:00:00 25 11 Sur 22 Sur 0 946.4 -- 25
2020-08-31 12:00:00 23.5 8 Sur 19 Sudeste 0 946.7 -- 32
2020-08-31 11:00:00 21.9 3 Sur 10 Nordeste 0 946.8 -- 39
2020-08-31 10:00:00 18.6 5 Nordeste 9 Nordeste 0 946.7 -- 54
2020-08-31 09:00:00 14.8 3 Sur 5 Sudoeste 0 946.4 -- 72
2020-08-31 08:00:00 10.8 0 Calma 6 Oeste 0 945.9 -- 79
2020-08-31 07:00:00 12 2 Norte 8 Oeste 0 945.3 -- 74
2020-08-31 06:00:00 11.9 5 Oeste 11 Sudoeste 0 945 -- 76
2020-08-31 05:00:00 11.4 7 Sudoeste 10 Sudoeste 0 944.9 -- 77
2020-08-31 04:00:00 12.3 5 Sudoeste 9 Oeste 0 944.8 -- 75
2020-08-31 03:00:00 13.4 5 Oeste 9 Oeste 0 944.9 -- 76
2020-08-31 02:00:00 14.3 4 Sudoeste 13 Oeste 0 945.1 -- 73
2020-08-31 01:00:00 14.7 7 Oeste 8 Oeste 0 945 -- 70
2020-08-31 00:00:00 16 0 Calma 12 Oeste 0 944.5 -- 66
2020-08-30 23:00:00 17.3 6 Oeste 8 Oeste 0 943.5 -- 63
2020-08-30 22:00:00 18.9 3 Sur 13 Este 0 942.5 -- 59
2020-08-30 21:00:00 19.5 9 Este 22 Sudeste 0 941.4 -- 57
2020-08-30 20:00:00 21.6 13 Sur 23 Sur 0 940.1 -- 49
2020-08-30 19:00:00 25 11 Sudoeste 21 Sur 0 939.5 -- 35
2020-08-30 18:00:00 26.1 15 Nordeste 30 Norte 0 939.4 -- 14
2020-08-30 17:00:00 26.3 10 Nordeste -- -- 0 939.5 -- 15
2020-08-30 16:00:00 25.6 9 Este -- -- 0 939.8 -- 18
2020-08-30 15:00:00 25.5 10 Noroeste 32 Norte 0 940.2 -- 18
2020-08-30 14:00:00 24.4 10 Este 27 Norte 0 940.6 -- 21
2020-08-30 13:00:00 23.7 11 Noroeste 24 Norte 0 941.1 -- 21
2020-08-30 12:00:00 21.2 12 Oeste 21 Oeste 0 941.2 -- 27
2020-08-30 11:00:00 20.3 5 Oeste 30 Noroeste 0 940.9 -- 32
2020-08-30 10:00:00 17.2 23 Noroeste 39 Noroeste 0 940.3 -- 40
2020-08-30 09:00:00 16.2 20 Norte 33 Noroeste 0 940.1 -- 43
2020-08-30 08:00:00 14.7 5 Sudoeste 22 Norte 0 939.8 -- 48
2020-08-30 07:00:00 15.2 17 Norte 35 Norte 0 939.2 -- 46
2020-08-30 06:00:00 15.5 9 Noroeste 24 Noroeste 0 939.2 -- 44
2020-08-30 05:00:00 16.3 10 Norte 23 Norte 0 938.9 -- 46
2020-08-30 04:00:00 16.7 19 Norte 27 Norte 0 938.6 -- 49
2020-08-30 03:00:00 14.3 4 Noroeste 11 Sudeste 0 938.5 -- 71
2020-08-30 02:00:00 15.9 4 Sudeste 17 Noroeste 0 938.3 -- 63
2020-08-30 01:00:00 17.7 10 Norte 18 Norte 0 937.8 -- 52
2020-08-30 00:00:00 18.7 6 Este 22 Norte 0 936.9 -- 38
2020-08-29 23:00:00 20 4 Nordeste 30 Oeste 0 936 -- 34
2020-08-29 22:00:00 19.3 5 Este 22 Oeste 0 935 -- 51
2020-08-29 21:00:00 23 14 Oeste 41 Oeste 0 934.1 -- 16
2020-08-29 20:00:00 24.6 20 Oeste 44 Oeste 0 933.5 -- 14
2020-08-29 19:00:00 25.4 23 Oeste 55 Oeste 0 932.9 -- 15
2020-08-29 18:00:00 27.1 22 Oeste 52 Oeste 0 932.3 -- 15
2020-08-29 17:00:00 27.2 28 Oeste 56 Oeste 0 931.8 -- 21
2020-08-29 16:00:00 28.3 22 Oeste -- -- 0 931.8 -- 23
2020-08-29 15:00:00 29.9 18 Oeste -- -- 0 931.6 -- 13
2020-08-29 14:00:00 29 14 Sudoeste 24 Sudoeste 0 931.8 -- 14
2020-08-29 13:00:00 27.8 9 Oeste 22 Oeste 0 932.4 -- 18
2020-08-29 12:00:00 23.7 7 Nordeste 26 Norte 0 932.9 -- 24
2020-08-29 11:00:00 22.3 13 Norte 31 Norte 0 933.1 -- 26
2020-08-29 10:00:00 21.8 17 Norte 28 Nordeste 0 933.1 -- 26
2020-08-29 09:00:00 20 10 Nordeste 20 Norte 0 933 -- 26
2020-08-29 08:00:00 19.4 4 Sudeste 23 Norte 0 932.4 -- 27
2020-08-29 07:00:00 21.4 12 Noroeste 24 Noroeste 0 932 -- 22
2020-08-29 06:00:00 22.7 10 Noroeste 27 Norte 0 931.8 -- 20
2020-08-29 05:00:00 23.7 13 Oeste 39 Oeste 0 931.9 -- 21
2020-08-29 04:00:00 24.7 20 Noroeste 48 Oeste 0 932 -- 23
2020-08-29 03:00:00 25.7 26 Oeste 47 Oeste 0 932.1 -- 25
2020-08-29 02:00:00 26.2 21 Oeste 42 Oeste 0 932.7 -- 27
2020-08-29 01:00:00 27.3 24 Oeste 38 Oeste 0 933 -- 26
2020-08-29 00:00:00 28.3 21 Oeste 32 Oeste 0 933.1 -- 26
2020-08-28 23:00:00 28.9 11 Oeste 26 Oeste 0 933.2 -- 22
2020-08-28 22:00:00 30.3 9 Noroeste 23 Oeste 0 932.9 -- 24
2020-08-28 21:00:00 30.3 6 Sudoeste 18 Sur 0 932.5 -- 37
2020-08-28 20:00:00 31.6 8 Sur 23 Sur 0 932.5 -- 32
2020-08-28 19:00:00 31.7 15 Sur 30 Sur 0 932.3 -- 36
2020-08-28 18:00:00 33.4 14 Sudoeste 25 Oeste 0 932.5 -- 20
2020-08-28 17:00:00 34.1 12 Oeste 33 Oeste 0 933.3 -- 19
2020-08-28 16:00:00 34.9 10 Oeste 26 Oeste 0 933.9 -- 15
2020-08-28 15:00:00 35.4 13 Oeste 24 Sudoeste 0 935 -- 18
2020-08-28 14:00:00 34.1 12 Sudoeste 27 Sudoeste 0 935.8 -- 18
2020-08-28 13:00:00 32.8 10 Oeste 22 Oeste 0 936.7 -- 20
2020-08-28 12:00:00 31.1 9 Sur 16 Sudeste 0 937.4 -- 22
2020-08-28 11:00:00 29 4 Sudoeste 9 Sur 0 937.7 -- 25
2020-08-28 10:00:00 24.9 5 Este 8 Nordeste 0 937.7 -- 35
2020-08-28 09:00:00 20.9 4 Nordeste 12 Sudoeste 0 938 -- 48
2020-08-28 08:00:00 17.5 9 Oeste 13 Oeste 0 938.2 -- 51
2020-08-28 07:00:00 16.7 5 Sudoeste 8 Sudoeste 0 938.4 -- 56
2020-08-28 06:00:00 17.6 4 Sudoeste 9 Sudoeste 0 938.8 -- 57
2020-08-28 05:00:00 18.7 2 Norte 11 Oeste 0 939.2 -- 54
2020-08-28 04:00:00 19.5 7 Oeste 15 Oeste 0 939.8 -- 53
2020-08-28 03:00:00 19.4 8 Oeste 11 Oeste 0 940.5 -- 57
2020-08-28 02:00:00 20.7 6 Sudoeste 15 Oeste 0 941.4 -- 57
2020-08-28 01:00:00 22.8 12 Oeste 15 Oeste 0 941.7 -- 52
2020-08-28 00:00:00 22.7 8 Oeste 11 Sudoeste 0 942.1 -- 53
2020-08-27 23:00:00 24.5 7 Oeste 9 Oeste 0 942.5 -- 50
2020-08-27 22:00:00 26.7 3 Noroeste 17 Sur 0 942.7 -- 46
2020-08-27 21:00:00 28.4 8 Sur 25 Sur 0 942.3 -- 39
2020-08-27 20:00:00 30.6 15 Sur 31 Sur 0 942.1 -- 34
2020-08-27 19:00:00 33 17 Sur 34 Sur 0 942.1 -- 32
2020-08-27 18:00:00 35.5 18 Sur -- -- 0 942.3 -- 23
2020-08-27 17:00:00 36.6 15 Sur -- -- 0 942.5 -- 15
2020-08-27 16:00:00 37.5 18 Sudoeste -- -- 0 943.4 -- 14
2020-08-27 15:00:00 37.1 12 Sur 31 Sur 0 944.2 -- 14
2020-08-27 14:00:00 36.1 12 Sur 23 Sur 0 944.9 -- 14
2020-08-27 13:00:00 34.7 13 Sur 25 Sudeste 0 945.5 -- 15
2020-08-27 12:00:00 34 8 Sur 22 Sudeste 0 945.8 -- 17
2020-08-27 11:00:00 30.8 8 Sudeste 12 Sur 0 945.9 -- 23
2020-08-27 10:00:00 26.8 5 Nordeste 9 Este 0 945.9 -- 32
2020-08-27 09:00:00 21.9 2 Sudoeste 4 Oeste 0 946 -- 45
2020-08-27 08:00:00 18.1 5 Oeste 7 Sudoeste 0 945.9 -- 54
2020-08-27 07:00:00 17.6 5 Sudoeste 13 Sudoeste 0 945.9 -- 57
2020-08-27 06:00:00 17.7 3 Sudoeste 6 Sudoeste 0 945.9 -- 58
2020-08-27 05:00:00 18.8 0 Calma 5 Oeste 0 946.2 -- 54
2020-08-27 04:00:00 19.1 2 Sudeste 5 Nordeste 0 946.5 -- 50
2020-08-27 03:00:00 20.8 0 Calma 13 Oeste 0 946.7 -- 43
2020-08-27 02:00:00 22.7 10 Sudoeste 14 Sudoeste 0 947.1 -- 39
2020-08-27 01:00:00 23.5 10 Sudoeste 15 Oeste 0 947.3 -- 35
2020-08-27 00:00:00 23 10 Oeste 16 Oeste 0 947.3 -- 35
2020-08-26 23:00:00 25.4 11 Oeste 15 Sudoeste 0 947.3 -- 30
2020-08-26 22:00:00 27 9 Sudoeste 18 Sudoeste 0 946.5 -- 29
2020-08-26 21:00:00 28.8 10 Sudoeste 20 Sur 0 945.9 -- 24
2020-08-26 20:00:00 31.8 13 Sur 27 Sur 0 945.5 -- 22
2020-08-26 19:00:00 34 14 Sudeste 25 Sudeste 0 945.5 -- 21
2020-08-26 18:00:00 35.5 14 Sur -- -- 0 945.4 -- 18
2020-08-26 17:00:00 36 15 Sudeste 28 Sudeste 0 945.8 -- 15
2020-08-26 16:00:00 36.6 13 Sur 31 Sur 0 946 -- 15
2020-08-26 15:00:00 36.3 11 Sudoeste 29 Sudoeste 0 946.5 -- 15
2020-08-26 14:00:00 35.1 11 Sudoeste 28 Sudoeste 0 946.7 -- 16
2020-08-26 13:00:00 34.2 12 Sudoeste 24 Sur 0 947.1 -- 16
2020-08-26 12:00:00 32.3 9 Sudeste 21 Sur 0 947.4 -- 21
2020-08-26 11:00:00 30.6 5 Sur 13 Sur 0 946.9 -- 23
2020-08-26 10:00:00 25.8 4 Este 10 Este 0 946.8 -- 40
2020-08-26 09:00:00 21.1 0 Calma 11 Oeste 0 946.5 -- 52
2020-08-26 08:00:00 16.4 6 Oeste 9 Oeste 0 946.3 -- 66
2020-08-26 07:00:00 16.2 2 Oeste 7 Sudoeste 0 945.8 -- 65
2020-08-26 06:00:00 16.7 3 Oeste 6 Oeste 0 945.6 -- 64
2020-08-26 05:00:00 18.1 2 Norte 8 Sudoeste 0 945.7 -- 59
2020-08-26 04:00:00 18.4 3 Oeste 8 Oeste 0 945.8 -- 55
2020-08-26 03:00:00 20.1 9 Oeste 12 Oeste 0 946 -- 48
2020-08-26 02:00:00 20.4 3 Oeste 10 Oeste 0 946 -- 50
2020-08-26 01:00:00 20.8 5 Oeste 15 Oeste 0 946 -- 48
2020-08-26 00:00:00 22.9 12 Oeste 15 Oeste 0 945.9 -- 44
2020-08-25 23:00:00 23.8 3 Sudoeste 8 Sur 0 945.4 -- 42
2020-08-25 22:00:00 26.8 8 Sur 14 Sudoeste 0 944.6 -- 34
2020-08-25 21:00:00 29.1 10 Sudoeste 23 Sudoeste 0 943.6 -- 26
2020-08-25 20:00:00 31.8 12 Sur 25 Sur 0 943.2 -- 27
2020-08-25 19:00:00 33.2 15 Sur 27 Sudeste 0 943.3 -- 26
2020-08-25 18:00:00 34.8 14 Sudeste 25 Sudeste 0 943.3 -- 23
2020-08-25 17:00:00 35.4 14 Sudeste 30 Sudeste 0 943.2 -- 21
2020-08-25 16:00:00 35.5 12 Sudoeste 19 Sudoeste 0 943.6 -- 20
2020-08-25 15:00:00 34.7 9 Sudoeste 24 Sur 0 944.1 -- 22
2020-08-25 14:00:00 33.1 10 Sur 24 Sudoeste 0 944.5 -- 23
2020-08-25 13:00:00 31.7 12 Sur 25 Sur 0 944.8 -- 24
2020-08-25 12:00:00 29.4 13 Sur 26 Sur 0 945.1 -- 33
2020-08-25 11:00:00 27.4 6 Sur 12 Sudoeste 0 944.9 -- 46
2020-08-25 10:00:00 23.8 5 Este 9 Este 0 944.8 -- 64
2020-08-25 09:00:00 20 2 Este 5 Oeste 0 944.7 -- 83
2020-08-25 08:00:00 16.4 4 Sudoeste 6 Oeste 0 944.4 -- 88
2020-08-25 07:00:00 16.7 4 Sudoeste 8 Sudoeste 0 944 -- 88
2020-08-25 06:00:00 18.1 2 Noroeste 14 Oeste 0 944 -- 86
2020-08-25 05:00:00 18.7 8 Oeste 14 Oeste 0 944.4 -- 86
2020-08-25 04:00:00 18.8 3 Sudoeste 10 Oeste 0 944.5 -- 85
2020-08-25 03:00:00 19.5 6 Sudoeste 13 Oeste 0 944.5 -- 84
2020-08-25 02:00:00 20.3 7 Oeste 12 Oeste 0 944.8 -- 83
2020-08-25 01:00:00 21.3 7 Sudoeste 14 Sudoeste 0 944.8 -- 80
2020-08-25 00:00:00 22.1 8 Sudoeste 15 Oeste 0 944.8 -- 76
2020-08-24 23:00:00 23 8 Sudoeste 15 Oeste 0 944.5 -- 72
2020-08-24 22:00:00 23.9 11 Sudoeste 17 Sudoeste 0 943.9 -- 69
2020-08-24 21:00:00 25.8 8 Sur 15 Sudoeste 0 943.1 -- 59
2020-08-24 20:00:00 28.1 10 Sur 21 Sudeste 0 942.9 -- 50
2020-08-24 19:00:00 29.7 12 Sudeste 30 Sudeste 0 943 -- 44
2020-08-24 18:00:00 30.6 14 Sudeste 29 Sur 0 943.3 -- 42
2020-08-24 17:00:00 30.8 11 Sudeste -- -- 0 943.6 -- 39
2020-08-24 16:00:00 31.4 8 Sur 25 Sudeste 0 944.1 -- 38
2020-08-24 15:00:00 29.7 8 Sur 22 Sur 0 944.6 -- 41
2020-08-24 14:00:00 29.9 8 Sur 23 Sudeste 0 944.9 -- 40
2020-08-24 13:00:00 27.8 11 Sur 21 Sur 0 945.7 -- 48
2020-08-24 12:00:00 26.6 11 Sur 24 Sudeste 0 946.2 -- 55
2020-08-24 11:00:00 26.9 10 Sudeste 17 Sur 0 945.9 -- 55
2020-08-24 10:00:00 23.9 8 Sur 17 Sur 0 945.7 -- 70
2020-08-24 09:00:00 22.4 4 Sur 8 Oeste 0 945.6 -- 77
2020-08-24 08:00:00 20.6 6 Sudoeste 9 Sudoeste 0 945.1 -- 83
2020-08-24 07:00:00 20.1 6 Sudoeste 10 Sudoeste 0 944.9 -- 85
2020-08-24 06:00:00 21.3 2 Este 6 Sudoeste 0 944.9 -- 82
2020-08-24 05:00:00 21.8 0 Calma 6 Sudoeste 0 945 -- 81
2020-08-24 04:00:00 22.4 4 Sur 5 Sur 0 945 -- 78
2020-08-24 03:00:00 22.5 2 Sur 8 Oeste 0 945.3 -- 79
2020-08-24 02:00:00 21.3 6 Sudoeste 8 Sudoeste 0 945.7 -- 83
2020-08-24 01:00:00 21.1 3 Sudoeste 6 Sudoeste 0 946 -- 79
2020-08-24 00:00:00 22.2 4 Sudoeste 6 Sudoeste 0 945.9 -- 76
2020-08-23 23:00:00 23.1 5 Sudoeste 10 Sur 0 946 -- 73
2020-08-23 22:00:00 24.2 7 Sur 13 Sudeste 0 945.6 -- 70
2020-08-23 21:00:00 25.4 9 Sudeste 21 Sudeste 0 945.5 -- 64
2020-08-23 20:00:00 27.4 14 Sudeste 26 Sudeste 0 945.1 -- 57
2020-08-23 19:00:00 29.8 15 Sur 30 Sudeste 0 945.1 -- 47
2020-08-23 18:00:00 30.6 14 Sur 28 Sudeste 0 945 -- 43
2020-08-23 17:00:00 30.4 10 Sudeste 31 Sudeste 0 945.3 -- 43
2020-08-23 16:00:00 31.8 12 Sudeste 24 Sudeste 0 945.9 -- 39
2020-08-23 15:00:00 31.6 7 Sudeste 22 Sudeste 0 946.4 -- 38
2020-08-23 14:00:00 29.9 11 Este 23 Sudeste 0 947.1 -- 43
2020-08-23 13:00:00 30.1 9 Sudeste 24 Sudeste 0 947.8 -- 43
2020-08-23 12:00:00 27.7 5 Sudoeste 19 Sudeste 0 948.3 -- 50
2020-08-23 11:00:00 25.9 4 Nordeste 11 Sudeste 0 948.3 -- 62
2020-08-23 10:00:00 23.1 3 Nordeste 12 Este 0 948 -- 76
2020-08-23 09:00:00 21.5 9 Nordeste 16 Este 0 948 -- 87
2020-08-23 08:00:00 19.1 4 Oeste 8 Sudoeste 0 948 -- 90
2020-08-23 07:00:00 19.3 3 Oeste 6 Sudoeste 0 947.3 -- 89
2020-08-23 06:00:00 19 4 Oeste 7 Oeste 0 947.3 -- 88
2020-08-23 05:00:00 19.8 2 Oeste 8 Oeste 0 947.3 -- 87
2020-08-23 04:00:00 20.9 7 Oeste 11 Oeste 0 946.9 -- 85
2020-08-23 03:00:00 21.2 8 Oeste 11 Oeste 0 947.1 -- 83
2020-08-23 02:00:00 22.7 4 Nordeste 12 Nordeste 0 947.8 -- 82
2020-08-23 01:00:00 23.4 8 Nordeste 13 Nordeste 0 948 -- 77
2020-08-23 00:00:00 23.1 6 Oeste 8 Oeste 0 948 -- 67
2020-08-22 23:00:00 25.2 2 Este 6 Sur 0 948 -- 62
2020-08-22 22:00:00 26.5 4 Sudeste 11 Sudoeste 0 947.4 -- 59
2020-08-22 21:00:00 28.1 8 Sur 16 Sur 0 946.7 -- 54
2020-08-22 20:00:00 30.7 10 Sur 24 Sur 0 946.2 -- 44
2020-08-22 19:00:00 32 15 Sur 31 Sudeste 0 945.9 -- 41
2020-08-22 18:00:00 34.1 19 Sudeste -- -- 0 945.6 -- 33
2020-08-22 17:00:00 37.1 13 Nordeste 24 Nordeste 0 945.6 -- 13
2020-08-22 16:00:00 35.9 6 Este 24 Nordeste 0 946.4 -- 17
2020-08-22 15:00:00 35.6 9 Este 32 Este 0 947.1 -- 18
2020-08-22 14:00:00 34.5 10 Este 29 Sudeste 0 947.4 -- 21
2020-08-22 13:00:00 33.9 12 Este 35 Este 0 947.8 -- 23
2020-08-22 12:00:00 32.7 9 Este 20 Nordeste 0 948.1 -- 24
2020-08-22 11:00:00 31 13 Norte 26 Norte 0 947.8 -- 27
2020-08-22 10:00:00 28.6 14 Noroeste 24 Noroeste 0 947.2 -- 33
2020-08-22 09:00:00 25 4 Sudeste 25 Noroeste 0 947.1 -- 41
2020-08-22 08:00:00 19.5 5 Sudoeste 12 Sudeste 0 946.6 -- 47
2020-08-22 07:00:00 20 4 Sur 12 Sudeste 0 946.1 -- 44
2020-08-22 06:00:00 20 5 Sudeste 11 Sudoeste 0 945.5 -- 44
2020-08-22 05:00:00 19.1 3 Sudoeste 6 Noroeste 0 945.6 -- 56
2020-08-22 04:00:00 19.7 3 Sudeste 9 Sudeste 0 945.4 -- 68
2020-08-22 03:00:00 20.9 2 Oeste 9 Oeste 0 945.4 -- 67
2020-08-22 02:00:00 22.9 10 Oeste 13 Oeste 0 945.5 -- 61
2020-08-22 01:00:00 24.2 6 Sur 13 Oeste 0 945.5 -- 58
2020-08-22 00:00:00 25.6 12 Oeste 15 Oeste 0 945.1 -- 53
2020-08-21 23:00:00 27.1 11 Sudoeste 13 Sudoeste 0 944.7 -- 52
2020-08-21 22:00:00 29.1 8 Sur 14 Oeste 0 943.8 -- 45
2020-08-21 21:00:00 31.5 11 Sudoeste 19 Sudoeste 0 942.7 -- 36
2020-08-21 20:00:00 34.2 14 Sudoeste 28 Sudoeste 0 942.2 -- 30
2020-08-21 19:00:00 36 15 Sur 28 Sudoeste 0 942.2 -- 26
2020-08-21 18:00:00 38 14 Sudoeste -- -- 0 942.1 -- 13
2020-08-21 17:00:00 38 13 Oeste 28 Sudoeste 0 942.1 -- 13
2020-08-21 16:00:00 37.8 15 Sudoeste 35 Sudoeste 0 942.5 -- 13
2020-08-21 15:00:00 37.2 12 Sudoeste 26 Sudoeste 0 942.9 -- 13
2020-08-21 14:00:00 35.3 10 Sur 21 Sur 0 943.1 -- 17
2020-08-21 13:00:00 33.4 5 Sudeste 15 Sur 0 943.3 -- 21
2020-08-21 12:00:00 31.6 7 Este 13 Este 0 943.2 -- 26
2020-08-21 11:00:00 29.6 5 Este 10 Este 0 943 -- 26
2020-08-21 10:00:00 26 3 Este 6 Este 0 942.7 -- 49
2020-08-21 09:00:00 20.7 2 Oeste 9 Sudeste 0 942.2 -- 82
2020-08-21 08:00:00 17.6 8 Oeste 19 Oeste 0 941.5 -- 89
2020-08-21 07:00:00 18.5 4 Sudoeste 7 Oeste 0 941.4 -- 89
2020-08-21 06:00:00 19.4 4 Sudoeste 8 Sur 0 940.9 -- 85
2020-08-21 05:00:00 19 5 Oeste 11 Oeste 0 940.8 -- 84
2020-08-21 04:00:00 19 7 Oeste 11 Oeste 0 940.6 -- 80
2020-08-21 03:00:00 19.8 5 Sudoeste 10 Oeste 0 941 -- 78
2020-08-21 02:00:00 20.7 3 Oeste 12 Oeste 0 940.9 -- 72
2020-08-21 01:00:00 20.9 6 Sudoeste 8 Oeste 0 940.4 -- 66
2020-08-21 00:00:00 23.2 2 Sudeste 11 Norte 0 940.3 -- 57